Time;durP1;ratioP1;P1;durP2;ratioP2;P2;SDS_P1;SDS_P2;PMS_P1;PMS_P2;Temp;Humidity;BMP_temperature;BMP_pressure;BME280_temperature;BME280_humidity;BME280_pressure;Samples;Min_cycle;Max_cycle;Signal;HPM_P1;HPM_P2
2022/05/03 00:00:04;;;;;;;74.15;54.65;;;17.30;59.30;;;;;;4916975;28;96506;-69
2022/05/03 00:03:01;;;;;;;75.50;55.05;;;17.30;59.00;;;;;;4923215;28;97586;-69
2022/05/03 00:05:50;;;;;;;75.45;55.13;;;17.30;59.20;;;;;;4918075;28;96212;-69
2022/05/03 00:08:38;;;;;;;74.55;54.90;;;17.30;59.40;;;;;;4922799;28;96120;-69
2022/05/03 00:11:27;;;;;;;74.22;55.33;;;17.30;59.40;;;;;;4931774;28;96064;-69
2022/05/03 00:14:21;;;;;;;74.07;54.85;;;17.30;59.40;;;;;;4923769;28;95180;-70
2022/05/03 00:16:49;;;;;;;74.30;54.50;;;17.20;59.40;;;;;;4919252;28;95485;-69
2022/05/03 00:19:15;;;;;;;73.65;54.67;;;17.20;59.40;;;;;;4923169;28;95794;-67
2022/05/03 00:21:41;;;;;;;73.78;54.33;;;17.20;59.30;;;;;;4923933;28;94992;-69
2022/05/03 00:24:07;;;;;;;73.72;54.78;;;17.20;59.50;;;;;;4921939;28;95584;-69
2022/05/03 00:26:34;;;;;;;71.60;53.83;;;17.20;59.40;;;;;;4929229;28;96405;-69
2022/05/03 00:29:00;;;;;;;74.97;54.50;;;17.20;59.50;;;;;;4928924;28;96065;-69
2022/05/03 00:31:27;;;;;;;73.65;54.40;;;17.20;59.50;;;;;;4924356;28;95011;-68
2022/05/03 00:33:54;;;;;;;73.03;54.42;;;17.20;59.50;;;;;;4919668;28;98178;-69
2022/05/03 00:36:21;;;;;;;73.47;54.78;;;17.20;59.60;;;;;;4911056;28;96626;-69
2022/05/03 00:38:47;;;;;;;74.15;54.42;;;17.20;59.50;;;;;;4919597;28;96864;-69
2022/05/03 00:41:27;;;;;;;72.25;53.47;;;17.20;59.50;;;;;;4927952;28;96533;-69
2022/05/03 00:47:05;;;;;;;72.05;53.40;;;17.20;59.50;;;;;;4925091;28;95637;-69
2022/05/03 00:49:51;;;;;;;72.80;53.83;;;17.20;59.50;;;;;;4926359;28;97737;-69
2022/05/03 00:52:29;;;;;;;76.70;54.50;;;17.10;59.30;;;;;;4897941;28;95271;-68
2022/05/03 00:54:57;;;;;;;72.13;54.17;;;17.10;59.30;;;;;;4919016;28;96205;-69
2022/05/03 00:57:40;;;;;;;72.85;54.05;;;17.10;59.40;;;;;;4918397;28;97144;-70
2022/05/03 01:00:11;;;;;;;71.72;53.53;;;17.10;59.30;;;;;;4927352;28;96364;-69
2022/05/03 01:02:49;;;;;;;75.20;54.05;;;17.10;59.30;;;;;;4926572;28;99466;-69
2022/05/03 01:05:25;;;;;;;73.95;53.75;;;17.10;59.40;;;;;;4928707;28;96488;-69
2022/05/03 01:08:14;;;;;;;72.90;54.13;;;17.10;59.50;;;;;;4927679;28;95998;-69
2022/05/03 01:11:10;;;;;;;71.50;53.53;;;17.10;59.80;;;;;;4928944;28;97165;-69
2022/05/03 01:13:50;;;;;;;72.10;53.72;;;17.10;59.30;;;;;;4937260;28;94991;-69
2022/05/03 01:16:29;;;;;;;72.43;53.47;;;17.10;59.40;;;;;;4928951;28;94789;-69
2022/05/03 01:19:27;;;;;;;72.13;53.97;;;17.00;59.30;;;;;;4934041;28;95070;-69
2022/05/03 01:22:13;;;;;;;72.97;53.88;;;17.00;59.40;;;;;;4913287;28;96231;-69
2022/05/03 01:25:27;;;;;;;71.28;53.35;;;17.10;59.40;;;;;;4920163;28;95170;-69
2022/05/03 01:28:05;;;;;;;70.78;52.75;;;17.10;59.30;;;;;;4930189;28;95465;-68
2022/05/03 01:30:31;;;;;;;72.05;54.00;;;17.00;59.30;;;;;;4922008;28;99322;-69
2022/05/03 01:33:08;;;;;;;72.03;53.58;;;17.00;59.40;;;;;;4920065;28;102024;-69
2022/05/03 01:35:39;;;;;;;71.85;53.08;;;17.00;59.30;;;;;;4929560;28;96537;-68
2022/05/03 01:38:29;;;;;;;71.97;53.25;;;17.00;59.30;;;;;;4927618;28;95369;-68
2022/05/03 01:41:10;;;;;;;72.47;54.40;;;17.00;59.30;;;;;;4926324;28;96625;-68
2022/05/03 01:43:45;;;;;;;71.63;53.67;;;17.00;59.30;;;;;;4929583;28;96173;-68
2022/05/03 01:46:18;;;;;;;72.13;53.45;;;17.00;59.10;;;;;;4929954;28;95520;-69
2022/05/03 01:52:07;;;;;;;70.90;53.25;;;16.90;59.10;;;;;;4923275;28;95229;-69
2022/05/03 01:54:49;;;;;;;72.82;53.63;;;17.00;59.30;;;;;;4933763;28;94861;-69
2022/05/03 01:57:41;;;;;;;71.35;53.28;;;16.90;59.00;;;;;;4933624;28;96019;-69
2022/05/03 02:00:09;;;;;;;71.70;53.60;;;16.90;59.40;;;;;;4902821;28;96804;-69
2022/05/03 02:03:02;;;;;;;71.85;54.00;;;16.90;59.20;;;;;;4924492;28;95053;-69
2022/05/03 02:05:46;;;;;;;71.38;53.10;;;16.90;59.20;;;;;;4922820;28;95990;-69
2022/05/03 02:08:17;;;;;;;71.30;53.65;;;16.90;59.10;;;;;;4930186;28;96797;-68
2022/05/03 02:11:02;;;;;;;71.75;53.55;;;16.90;59.10;;;;;;4928805;28;95292;-69
2022/05/03 02:17:02;;;;;;;70.38;52.97;;;16.80;59.10;;;;;;4934354;28;93905;-69
2022/05/03 02:19:49;;;;;;;71.32;53.88;;;16.80;59.30;;;;;;4917988;28;95747;-69
2022/05/03 02:22:26;;;;;;;70.05;53.15;;;16.90;59.30;;;;;;4930347;28;95081;-69
2022/05/03 02:25:11;;;;;;;71.82;53.92;;;16.80;59.10;;;;;;4923514;28;96731;-68
2022/05/03 02:27:42;;;;;;;70.85;53.30;;;16.80;59.10;;;;;;4927080;28;98172;-69
2022/05/03 02:30:08;;;;;;;70.50;52.65;;;16.80;59.20;;;;;;4940472;28;95261;-69
2022/05/03 02:32:45;;;;;;;72.88;53.65;;;16.80;59.30;;;;;;4926021;28;95373;-69
2022/05/03 02:35:23;;;;;;;70.03;52.88;;;16.80;59.10;;;;;;4914694;28;101101;-69
2022/05/03 02:37:56;;;;;;;70.43;53.00;;;16.80;59.10;;;;;;4924439;28;96668;-69
2022/05/03 02:40:27;;;;;;;71.05;53.80;;;16.80;59.10;;;;;;4928237;28;95048;-68
2022/05/03 02:42:54;;;;;;;72.32;53.92;;;16.80;59.10;;;;;;4927126;28;96185;-69
2022/05/03 02:45:20;;;;;;;69.70;52.88;;;16.80;59.20;;;;;;4927580;28;95216;-69
2022/05/03 02:48:13;;;;;;;72.35;53.58;;;16.70;59.10;;;;;;4923758;28;95491;-69
2022/05/03 02:50:51;;;;;;;75.07;54.22;;;16.80;59.00;;;;;;4915076;28;96697;-68
2022/05/03 02:53:27;;;;;;;71.20;53.38;;;16.80;59.20;;;;;;4930515;28;95586;-68
2022/05/03 02:55:58;;;;;;;70.03;52.80;;;16.80;59.20;;;;;;4926999;28;94973;-68
2022/05/03 02:58:44;;;;;;;71.93;53.40;;;16.70;59.10;;;;;;4928311;28;94992;-69
2022/05/03 03:04:43;;;;;;;73.05;54.47;;;16.70;59.00;;;;;;4925785;28;95259;-69
2022/05/03 03:07:16;;;;;;;70.90;53.28;;;16.80;59.10;;;;;;4922394;28;99722;-68
2022/05/03 03:10:05;;;;;;;72.07;53.60;;;16.70;59.00;;;;;;4912107;28;95112;-68
2022/05/03 03:12:44;;;;;;;70.97;53.65;;;16.70;59.00;;;;;;4932078;28;95189;-69
2022/05/03 03:15:14;;;;;;;69.07;52.55;;;16.70;59.00;;;;;;4923752;28;96614;-69
2022/05/03 03:17:46;;;;;;;72.28;53.53;;;16.70;59.00;;;;;;4925739;28;98591;-69
2022/05/03 03:20:13;;;;;;;70.95;53.63;;;16.70;59.00;;;;;;4930386;28;95754;-69
2022/05/03 03:22:40;;;;;;;70.47;52.85;;;16.70;58.90;;;;;;4934947;28;95208;-69
2022/05/03 03:25:08;;;;;;;70.15;53.05;;;16.70;59.10;;;;;;4927181;28;95109;-69
2022/05/03 03:27:35;;;;;;;72.70;54.90;;;16.60;59.10;;;;;;4925161;28;95645;-69
2022/05/03 03:30:04;;;;;;;70.00;53.30;;;16.60;59.10;;;;;;4921234;28;99532;-68
2022/05/03 03:32:30;;;;;;;71.05;53.53;;;16.70;59.00;;;;;;4930771;28;96105;-69
2022/05/03 03:34:58;;;;;;;71.78;53.40;;;16.70;59.00;;;;;;4924882;28;95536;-68
2022/05/03 03:37:28;;;;;;;70.22;53.33;;;16.60;59.10;;;;;;4927779;28;95091;-68
2022/05/03 03:39:55;;;;;;;71.68;53.92;;;16.60;59.10;;;;;;4925502;28;95424;-69
2022/05/03 03:42:21;;;;;;;70.10;53.00;;;16.60;59.00;;;;;;4925175;28;99109;-69
2022/05/03 03:44:48;;;;;;;70.50;53.50;;;16.60;59.10;;;;;;4924789;28;95065;-68
2022/05/03 03:47:15;;;;;;;70.53;53.25;;;16.60;59.10;;;;;;4926119;28;95842;-68
2022/05/03 03:49:41;;;;;;;72.80;53.55;;;16.60;58.90;;;;;;4923646;28;96472;-68
2022/05/03 03:52:11;;;;;;;70.65;53.03;;;16.60;59.10;;;;;;4927621;28;95655;-68
2022/05/03 03:54:37;;;;;;;70.63;53.25;;;16.60;59.00;;;;;;4925712;28;95075;-68
2022/05/03 03:57:05;;;;;;;73.63;54.08;;;16.60;59.00;;;;;;4922761;28;101044;-68
2022/05/03 03:59:32;;;;;;;71.80;54.15;;;16.50;59.10;;;;;;4929948;28;95248;-68
2022/05/03 04:02:02;;;;;;;71.88;53.78;;;16.50;59.10;;;;;;4916432;28;96543;-68
2022/05/03 04:04:33;;;;;;;71.28;53.85;;;16.50;59.00;;;;;;4912227;28;96827;-69
2022/05/03 04:07:00;;;;;;;70.18;52.75;;;16.50;58.60;;;;;;4917455;28;97283;-68
2022/05/03 04:09:27;;;;;;;72.03;53.53;;;16.50;59.20;;;;;;4921730;28;96327;-68
2022/05/03 04:11:53;;;;;;;71.03;53.33;;;16.50;59.00;;;;;;4917851;28;95027;-68
2022/05/03 04:14:19;;;;;;;72.35;53.42;;;16.50;59.10;;;;;;4909539;28;95263;-69
2022/05/03 04:16:45;;;;;;;72.00;53.40;;;16.50;59.10;;;;;;4924206;28;96204;-69
2022/05/03 04:19:12;;;;;;;72.50;54.22;;;16.50;59.30;;;;;;4922931;28;95194;-68
2022/05/03 04:21:39;;;;;;;72.63;53.47;;;16.50;59.10;;;;;;4939096;28;95181;-69
2022/05/03 04:24:06;;;;;;;70.65;52.83;;;16.50;59.00;;;;;;4926612;28;94631;-69
2022/05/03 04:26:32;;;;;;;70.47;53.33;;;16.50;59.10;;;;;;4930939;28;95845;-69
2022/05/03 04:28:58;;;;;;;70.85;52.97;;;16.50;59.00;;;;;;4939809;28;94972;-68
2022/05/03 04:31:26;;;;;;;71.07;54.20;;;16.50;59.10;;;;;;4921645;28;102993;-68
2022/05/03 04:33:52;;;;;;;71.10;53.65;;;16.50;59.00;;;;;;4935429;28;96922;-69
2022/05/03 04:36:18;;;;;;;70.97;53.53;;;16.50;59.00;;;;;;4932056;28;95042;-69
2022/05/03 04:38:44;;;;;;;71.50;53.58;;;16.40;59.00;;;;;;4933906;28;96149;-69
2022/05/03 04:41:09;;;;;;;70.20;53.53;;;16.40;59.70;;;;;;4933326;28;98120;-68
2022/05/03 04:43:35;;;;;;;72.13;53.35;;;16.40;59.10;;;;;;4935127;28;95566;-68
2022/05/03 04:46:01;;;;;;;71.18;53.50;;;16.40;59.00;;;;;;4944769;28;95142;-68
2022/05/03 04:48:26;;;;;;;69.75;52.53;;;16.40;59.10;;;;;;4934419;28;94586;-68
2022/05/03 04:50:52;;;;;;;70.38;53.28;;;16.40;59.10;;;;;;4934241;28;95186;-69
2022/05/03 04:53:17;;;;;;;70.45;52.83;;;16.40;59.00;;;;;;4927219;28;96375;-68
2022/05/03 04:55:43;;;;;;;72.57;53.28;;;16.40;59.20;;;;;;4934973;28;96292;-67
2022/05/03 04:58:09;;;;;;;70.22;53.08;;;16.40;59.20;;;;;;4928837;28;98625;-68
2022/05/03 05:00:35;;;;;;;70.72;53.17;;;16.40;59.10;;;;;;4929496;28;95097;-68
2022/05/03 05:03:01;;;;;;;73.28;54.80;;;16.40;59.30;;;;;;4927836;28;95320;-68
2022/05/03 05:05:27;;;;;;;69.22;52.50;;;16.40;59.10;;;;;;4928216;28;95179;-68
2022/05/03 05:07:53;;;;;;;70.95;52.83;;;16.30;59.80;;;;;;4934917;28;95237;-66
2022/05/03 05:10:26;;;;;;;70.53;53.50;;;16.30;59.40;;;;;;4936788;28;95167;-67
2022/05/03 05:12:55;;;;;;;70.78;53.55;;;16.30;59.40;;;;;;4934384;28;97378;-67
2022/05/03 05:15:25;;;;;;;74.60;53.25;;;16.30;59.60;;;;;;4934692;28;97504;-68
2022/05/03 05:17:55;;;;;;;70.90;53.03;;;16.30;59.50;;;;;;4925390;28;97417;-68
2022/05/03 05:20:21;;;;;;;71.03;53.78;;;16.30;59.40;;;;;;4927422;28;96631;-68
2022/05/03 05:22:47;;;;;;;73.05;54.67;;;16.30;59.50;;;;;;4937838;28;95055;-67
2022/05/03 05:25:13;;;;;;;71.53;54.13;;;16.30;59.60;;;;;;4933397;28;95850;-68
2022/05/03 05:27:39;;;;;;;72.60;53.72;;;16.30;59.40;;;;;;4932336;28;95612;-68
2022/05/03 05:30:07;;;;;;;71.85;52.88;;;16.30;59.70;;;;;;4929725;28;95841;-68
2022/05/03 05:32:36;;;;;;;72.57;52.78;;;16.30;60.00;;;;;;4936565;28;94982;-68
2022/05/03 05:35:04;;;;;;;71.38;52.90;;;16.30;60.30;;;;;;4926508;28;98234;-68
2022/05/03 05:37:30;;;;;;;70.78;53.45;;;16.30;60.40;;;;;;4930475;28;94346;-68
2022/05/03 05:39:55;;;;;;;75.53;54.47;;;16.30;59.90;;;;;;4912940;28;95708;-68
2022/05/03 05:42:21;;;;;;;77.47;54.80;;;16.30;59.90;;;;;;4930523;28;95727;-68
2022/05/03 05:44:47;;;;;;;74.93;54.78;;;16.40;60.00;;;;;;4933868;28;96185;-68
2022/05/03 05:47:13;;;;;;;76.90;54.95;;;16.30;59.80;;;;;;4939105;28;96572;-69
2022/05/03 05:49:39;;;;;;;76.45;54.90;;;16.30;60.00;;;;;;4937850;28;95415;-68
2022/05/03 05:54:49;;;;;;;80.75;55.78;;;16.30;59.80;;;;;;4932466;28;95343;-68
2022/05/03 05:57:15;;;;;;;76.63;55.13;;;16.40;59.90;;;;;;4932181;28;95000;-68
2022/05/03 05:59:41;;;;;;;75.47;54.70;;;16.30;59.70;;;;;;4929774;28;94968;-68
2022/05/03 06:02:07;;;;;;;81.10;55.60;;;16.30;60.00;;;;;;4937521;28;94164;-67
2022/05/03 06:04:36;;;;;;;79.45;55.22;;;16.30;59.90;;;;;;4934832;28;95908;-68
2022/05/03 06:07:01;;;;;;;79.03;55.47;;;16.30;59.80;;;;;;4936232;28;95047;-68
2022/05/03 06:09:27;;;;;;;77.00;55.75;;;16.30;59.70;;;;;;4940202;28;95831;-68
2022/05/03 06:11:52;;;;;;;76.55;55.47;;;16.40;59.80;;;;;;4932573;28;95290;-68
2022/05/03 06:14:18;;;;;;;78.28;55.97;;;16.40;59.80;;;;;;4937113;28;96927;-68
2022/05/03 06:16:57;;;;;;;75.95;55.33;;;16.40;59.70;;;;;;4932869;28;94829;-68
2022/05/03 06:19:23;;;;;;;78.53;56.05;;;16.40;59.80;;;;;;4934308;28;94885;-68
2022/05/03 06:21:50;;;;;;;79.78;55.58;;;16.40;59.60;;;;;;4920489;28;95418;-68
2022/05/03 06:24:16;;;;;;;79.20;56.50;;;16.40;59.60;;;;;;4923678;28;98009;-67
2022/05/03 06:26:42;;;;;;;79.40;56.13;;;16.30;59.30;;;;;;4938024;28;95885;-68
2022/05/03 06:29:09;;;;;;;77.20;55.70;;;16.40;59.40;;;;;;4931562;28;95245;-67
2022/05/03 06:31:38;;;;;;;78.35;55.92;;;16.40;59.60;;;;;;4934204;28;95339;-68
2022/05/03 06:34:05;;;;;;;78.55;56.03;;;16.40;59.20;;;;;;4930629;28;96203;-68
2022/05/03 06:36:31;;;;;;;78.53;56.15;;;16.40;59.40;;;;;;4934453;28;96671;-68
2022/05/03 06:38:57;;;;;;;80.00;55.67;;;16.40;59.20;;;;;;4936219;28;94979;-68
2022/05/03 06:41:22;;;;;;;79.00;55.80;;;16.50;59.30;;;;;;4929203;28;95640;-68
2022/05/03 06:43:48;;;;;;;79.68;55.85;;;16.50;59.40;;;;;;4937414;28;95011;-68
2022/05/03 06:46:14;;;;;;;77.60;55.58;;;16.50;59.30;;;;;;4930062;28;96417;-68
2022/05/03 06:48:40;;;;;;;78.65;56.25;;;16.50;59.10;;;;;;4930655;28;94934;-68
2022/05/03 06:51:06;;;;;;;76.50;56.17;;;16.50;58.90;;;;;;4929046;28;94409;-68
2022/05/03 06:53:32;;;;;;;77.10;55.53;;;16.50;58.90;;;;;;4932890;28;96577;-69
2022/05/03 06:55:58;;;;;;;76.50;55.72;;;16.50;59.10;;;;;;4921568;28;94963;-68
2022/05/03 06:58:24;;;;;;;78.13;55.40;;;16.50;58.70;;;;;;4933131;28;95967;-68
2022/05/03 07:00:49;;;;;;;75.88;55.38;;;16.60;59.00;;;;;;4919869;28;95626;-67
2022/05/03 07:03:17;;;;;;;77.55;56.05;;;16.60;59.30;;;;;;4921527;28;96042;-68
2022/05/03 07:05:43;;;;;;;77.85;55.75;;;16.60;58.30;;;;;;4936306;28;96644;-67
2022/05/03 07:08:10;;;;;;;77.25;55.75;;;16.60;58.40;;;;;;4934103;28;95330;-68
2022/05/03 07:10:36;;;;;;;78.38;55.63;;;16.60;58.70;;;;;;4939371;28;94962;-68
2022/05/03 07:13:03;;;;;;;76.63;55.38;;;16.70;58.80;;;;;;4931565;28;95672;-68
2022/05/03 07:15:30;;;;;;;80.18;55.45;;;16.70;58.70;;;;;;4926375;28;95993;-68
2022/05/03 07:23:26;;;;;;;80.00;54.95;;;16.70;58.80;;;;;;4932907;28;96111;-68
2022/05/03 07:25:53;;;;;;;75.07;54.50;;;16.70;58.50;;;;;;4935268;28;95928;-67
2022/05/03 07:28:18;;;;;;;75.72;54.83;;;16.70;58.40;;;;;;4936209;28;94941;-66
2022/05/03 07:30:44;;;;;;;75.28;54.20;;;16.80;58.30;;;;;;4929071;28;94692;-66
2022/05/03 07:33:09;;;;;;;75.18;54.75;;;16.80;58.40;;;;;;4934517;28;95212;-66
2022/05/03 07:35:35;;;;;;;73.63;54.53;;;16.80;58.30;;;;;;4937147;28;94956;-66
2022/05/03 07:38:01;;;;;;;74.05;54.20;;;16.80;58.30;;;;;;4929590;28;94637;-67
2022/05/03 07:40:28;;;;;;;75.05;54.65;;;16.80;58.30;;;;;;4938514;28;94541;-66
2022/05/03 07:42:53;;;;;;;74.47;54.47;;;16.90;58.00;;;;;;4929819;28;95054;-67
2022/05/03 07:45:19;;;;;;;76.45;54.50;;;16.90;58.20;;;;;;4934009;28;95049;-67
2022/05/03 07:47:45;;;;;;;73.53;54.05;;;16.90;58.30;;;;;;4937822;28;99053;-66
2022/05/03 07:50:10;;;;;;;75.20;54.17;;;16.90;58.10;;;;;;4931593;28;95232;-66
2022/05/03 07:52:37;;;;;;;76.05;54.03;;;16.90;58.10;;;;;;4934327;28;95355;-66
2022/05/03 07:55:06;;;;;;;75.72;53.90;;;17.00;57.90;;;;;;4930740;28;94945;-65
2022/05/03 07:57:32;;;;;;;74.32;53.60;;;17.00;58.00;;;;;;4936748;28;94733;-66
2022/05/03 07:59:57;;;;;;;75.80;53.92;;;17.00;57.60;;;;;;4929050;28;94886;-66
2022/05/03 08:02:24;;;;;;;73.72;53.58;;;17.00;57.70;;;;;;4930355;28;98288;-66
2022/05/03 08:04:51;;;;;;;74.13;53.78;;;17.00;57.40;;;;;;4918151;28;95336;-67
2022/05/03 08:07:17;;;;;;;72.60;53.42;;;17.00;57.80;;;;;;4916620;28;98363;-66
2022/05/03 08:09:44;;;;;;;72.70;53.75;;;17.10;57.90;;;;;;4925522;28;95257;-67
2022/05/03 08:12:10;;;;;;;74.10;53.90;;;17.10;57.40;;;;;;4936416;28;96050;-66
2022/05/03 08:14:36;;;;;;;73.18;53.53;;;17.10;57.40;;;;;;4934890;28;95735;-66
2022/05/03 08:17:03;;;;;;;72.70;52.97;;;17.10;57.30;;;;;;4941106;28;95370;-67
2022/05/03 08:19:28;;;;;;;73.43;53.33;;;17.20;57.70;;;;;;4939327;28;95269;-66
2022/05/03 08:21:56;;;;;;;76.03;53.33;;;17.20;57.50;;;;;;4928842;28;98524;-66
2022/05/03 08:24:25;;;;;;;72.53;52.95;;;17.20;57.20;;;;;;4931393;28;96081;-66
2022/05/03 08:26:51;;;;;;;73.25;53.30;;;17.20;57.40;;;;;;4939501;28;94947;-66
2022/05/03 08:29:17;;;;;;;72.57;52.83;;;17.20;57.40;;;;;;4939373;28;94215;-66
2022/05/03 08:31:43;;;;;;;72.10;52.60;;;17.20;57.00;;;;;;4936825;28;95551;-66
2022/05/03 08:34:09;;;;;;;74.32;52.65;;;17.20;57.30;;;;;;4935555;28;95457;-65
2022/05/03 08:36:35;;;;;;;73.47;52.83;;;17.30;57.10;;;;;;4932325;28;97951;-66
2022/05/03 08:44:30;;;;;;;72.35;52.75;;;17.30;57.40;;;;;;4927865;28;95001;-66
2022/05/03 08:46:57;;;;;;;74.07;52.78;;;17.30;57.30;;;;;;4931633;28;95312;-66
2022/05/03 08:49:25;;;;;;;74.72;53.13;;;17.30;57.00;;;;;;4933778;28;95113;-69
2022/05/03 08:51:52;;;;;;;72.88;53.05;;;17.30;56.80;;;;;;4934698;28;96953;-66
2022/05/03 08:54:18;;;;;;;72.55;52.80;;;17.30;57.10;;;;;;4937037;28;95999;-66
2022/05/03 08:56:43;;;;;;;73.78;52.78;;;17.40;57.20;;;;;;4930408;28;95080;-66
2022/05/03 08:59:09;;;;;;;73.53;52.80;;;17.40;57.10;;;;;;4932501;28;95053;-66
2022/05/03 09:01:36;;;;;;;73.95;52.80;;;17.40;57.00;;;;;;4929032;28;95937;-66
2022/05/03 09:04:02;;;;;;;72.30;52.70;;;17.40;57.30;;;;;;4935707;28;96405;-66
2022/05/03 09:07:15;;;;;;;72.93;52.55;;;17.40;56.90;;;;;;4923761;28;96068;-66
2022/05/03 09:09:40;;;;;;;74.60;53.00;;;17.40;56.00;;;;;;4923633;28;94911;-66
2022/05/03 09:12:24;;;;;;;73.50;53.50;;;17.40;56.70;;;;;;4934392;28;95341;-66
2022/05/03 09:14:50;;;;;;;72.90;52.67;;;17.40;56.60;;;;;;4931583;28;101974;-66
2022/05/03 09:17:34;;;;;;;74.32;52.70;;;17.40;57.10;;;;;;4935054;28;94834;-66
2022/05/03 09:23:46;;;;;;;72.32;52.40;;;17.50;57.10;;;;;;4937467;28;94352;-66
2022/05/03 09:25:34;;;;;;;72.82;52.80;;;17.50;56.90;;;;;;4930794;28;95061;-65
2022/05/03 09:28:07;;;;;;;73.10;52.60;;;17.50;57.00;;;;;;4927635;28;95679;-65
2022/05/03 09:30:32;;;;;;;73.00;52.50;;;17.50;57.00;;;;;;4933096;28;94976;-65
2022/05/03 09:32:58;;;;;;;75.22;52.80;;;17.60;56.80;;;;;;4930179;28;96047;-66
2022/05/03 09:35:32;;;;;;;74.40;54.53;;;17.60;57.10;;;;;;4935925;28;95684;-66
2022/05/03 09:37:59;;;;;;;73.72;53.25;;;17.60;54.70;;;;;;4931195;28;95547;-66
2022/05/03 09:40:25;;;;;;;73.38;52.97;;;17.60;55.80;;;;;;4931293;28;95269;-65
2022/05/03 09:42:53;;;;;;;72.20;51.95;;;17.60;56.60;;;;;;4932438;28;94639;-68
2022/05/03 09:45:23;;;;;;;72.65;52.67;;;17.60;57.20;;;;;;4919097;28;96042;-69
2022/05/03 09:47:53;;;;;;;75.50;52.72;;;17.60;57.10;;;;;;4938055;28;95542;-66
2022/05/03 09:50:40;;;;;;;73.85;53.33;;;17.70;57.10;;;;;;4930558;28;94730;-66
2022/05/03 09:53:28;;;;;;;73.63;52.38;;;17.70;56.90;;;;;;4933708;28;95907;-65
2022/05/03 09:55:54;;;;;;;72.85;53.05;;;17.70;56.80;;;;;;4928432;28;97454;-66
2022/05/03 09:58:19;;;;;;;73.85;53.67;;;17.70;56.80;;;;;;4926435;28;95754;-66
2022/05/03 10:00:48;;;;;;;73.95;53.10;;;17.70;56.40;;;;;;4931542;28;95653;-67
2022/05/03 10:03:14;;;;;;;72.85;52.72;;;17.70;56.30;;;;;;4927705;28;95388;-66
2022/05/03 10:05:45;;;;;;;73.13;52.78;;;17.80;56.70;;;;;;4937163;28;95213;-66
2022/05/03 10:08:11;;;;;;;73.78;52.13;;;17.80;56.90;;;;;;4929566;28;97797;-66
2022/05/03 10:10:41;;;;;;;72.25;52.28;;;17.80;57.10;;;;;;4929016;28;94747;-66
2022/05/03 10:13:06;;;;;;;72.88;52.97;;;17.80;56.90;;;;;;4931225;28;95302;-69
2022/05/03 10:21:14;;;;;;;73.82;52.95;;;17.90;56.60;;;;;;4927855;28;95816;-66
2022/05/03 10:23:39;;;;;;;73.70;53.05;;;17.90;56.30;;;;;;4937440;28;95274;-66
2022/05/03 10:26:09;;;;;;;73.53;53.00;;;17.90;56.80;;;;;;4932489;28;94964;-66
2022/05/03 10:29:00;;;;;;;71.82;52.08;;;17.90;57.10;;;;;;4929128;28;94962;-66
2022/05/03 10:31:26;;;;;;;72.75;52.38;;;17.90;57.00;;;;;;4933997;28;94822;-66
2022/05/03 10:33:52;;;;;;;72.47;52.72;;;17.90;57.10;;;;;;4935390;28;94993;-67
2022/05/03 10:36:32;;;;;;;73.05;52.40;;;18.00;57.00;;;;;;4930796;28;96065;-66
2022/05/03 10:39:17;;;;;;;75.63;52.70;;;18.00;57.00;;;;;;4930979;28;95388;-66
2022/05/03 10:41:53;;;;;;;73.93;52.20;;;18.00;56.90;;;;;;4921723;28;97519;-66
2022/05/03 10:44:41;;;;;;;74.07;52.92;;;18.10;56.80;;;;;;4928440;28;96278;-66
2022/05/03 10:47:08;;;;;;;74.00;52.97;;;18.10;56.90;;;;;;4937172;28;96814;-66
2022/05/03 10:49:33;;;;;;;74.35;52.83;;;18.10;56.70;;;;;;4936968;28;95445;-68
2022/05/03 10:51:59;;;;;;;74.85;53.00;;;18.20;56.70;;;;;;4935784;28;95112;-66
2022/05/03 10:54:24;;;;;;;76.40;53.30;;;18.20;56.60;;;;;;4923434;28;95278;-66
2022/05/03 10:57:09;;;;;;;74.07;53.22;;;18.20;56.60;;;;;;4932412;28;95522;-67
2022/05/03 10:59:48;;;;;;;75.65;53.30;;;18.20;56.60;;;;;;4927388;28;96092;-66
2022/05/03 11:02:14;;;;;;;76.20;54.38;;;18.20;56.60;;;;;;4932371;28;95279;-68
2022/05/03 11:05:13;;;;;;;74.35;52.95;;;18.20;56.60;;;;;;4933051;28;96186;-66
2022/05/03 11:07:39;;;;;;;75.72;54.33;;;18.20;56.60;;;;;;4928973;28;95314;-66
2022/05/03 11:10:42;;;;;;;76.22;55.30;;;18.30;56.60;;;;;;4931722;28;96076;-66
2022/05/03 11:13:39;;;;;;;77.32;55.90;;;18.30;56.50;;;;;;4933909;28;95138;-66
2022/05/03 11:16:19;;;;;;;76.82;54.28;;;18.30;56.50;;;;;;4929816;28;95418;-66
2022/05/03 11:18:45;;;;;;;75.82;54.38;;;18.30;56.40;;;;;;4938601;28;96052;-66
2022/05/03 11:21:15;;;;;;;75.72;53.92;;;18.30;56.40;;;;;;4928828;28;95837;-67
2022/05/03 11:24:17;;;;;;;75.82;54.40;;;18.40;56.40;;;;;;4931914;28;95227;-67
2022/05/03 11:26:42;;;;;;;76.00;54.03;;;18.40;56.30;;;;;;4935989;28;95633;-66
2022/05/03 11:29:11;;;;;;;77.43;54.25;;;18.40;56.90;;;;;;4935176;28;94356;-66
2022/05/03 11:31:37;;;;;;;77.55;55.20;;;18.40;56.30;;;;;;4934113;28;95318;-68
2022/05/03 11:34:06;;;;;;;77.38;54.97;;;18.40;56.20;;;;;;4931070;28;95021;-66
2022/05/03 11:36:32;;;;;;;77.30;55.20;;;18.50;56.30;;;;;;4928264;28;96377;-66
2022/05/03 11:38:59;;;;;;;79.28;55.08;;;18.40;56.10;;;;;;4931738;28;97513;-66
2022/05/03 11:41:28;;;;;;;77.15;54.42;;;18.50;56.10;;;;;;4926689;28;95771;-66
2022/05/03 11:43:54;;;;;;;77.93;54.88;;;18.50;56.00;;;;;;4927300;28;96977;-67
2022/05/03 11:46:21;;;;;;;77.97;55.53;;;18.50;56.00;;;;;;4934482;28;97247;-67
2022/05/03 11:48:59;;;;;;;78.47;55.60;;;18.60;55.90;;;;;;4926761;28;99404;-67
2022/05/03 11:57:20;;;;;;;76.13;54.00;;;18.60;55.80;;;;;;4931612;28;94871;-67
2022/05/03 11:59:49;;;;;;;77.05;54.30;;;18.70;55.70;;;;;;4927791;28;95010;-67
2022/05/03 12:02:32;;;;;;;75.68;53.38;;;18.70;55.60;;;;;;4936625;28;95661;-67
2022/05/03 12:05:16;;;;;;;76.10;53.45;;;18.70;55.50;;;;;;4934318;28;95509;-68
2022/05/03 12:07:43;;;;;;;76.13;53.53;;;18.70;55.50;;;;;;4931957;28;95186;-68
2022/05/03 12:10:19;;;;;;;76.22;53.88;;;18.80;55.50;;;;;;4928041;28;94993;-67
2022/05/03 12:12:46;;;;;;;76.95;53.70;;;18.80;55.50;;;;;;4926656;28;94698;-67
2022/05/03 12:15:15;;;;;;;76.78;53.42;;;18.80;55.40;;;;;;4934118;28;95532;-67
2022/05/03 12:18:00;;;;;;;77.05;53.58;;;18.80;55.40;;;;;;4936017;28;98392;-67
2022/05/03 12:20:39;;;;;;;75.75;53.50;;;18.90;55.40;;;;;;4921251;28;95984;-67
2022/05/03 12:23:10;;;;;;;76.28;53.30;;;18.90;55.40;;;;;;4928001;28;95753;-67
2022/05/03 12:25:39;;;;;;;76.03;53.33;;;18.90;55.30;;;;;;4931916;28;95316;-67
2022/05/03 12:28:06;;;;;;;75.65;53.33;;;18.90;55.20;;;;;;4925288;28;99610;-67
2022/05/03 12:30:32;;;;;;;76.20;53.53;;;18.90;55.20;;;;;;4931732;28;95757;-67
2022/05/03 12:33:07;;;;;;;75.53;53.25;;;19.00;55.20;;;;;;4930218;28;95227;-67
2022/05/03 12:35:35;;;;;;;76.13;53.30;;;19.00;55.20;;;;;;4935378;28;96445;-67
2022/05/03 12:38:12;;;;;;;76.22;53.53;;;19.00;55.20;;;;;;4927503;28;95692;-67
2022/05/03 12:40:45;;;;;;;76.68;53.20;;;19.00;55.10;;;;;;4932973;28;95300;-67
2022/05/03 12:43:28;;;;;;;75.88;53.53;;;19.00;55.00;;;;;;4931261;28;95402;-67
2022/05/03 12:46:02;;;;;;;76.18;53.58;;;19.10;55.00;;;;;;4935448;28;94203;-67
2022/05/03 12:48:29;;;;;;;75.13;52.75;;;19.10;55.00;;;;;;4935798;28;95825;-67
2022/05/03 12:50:56;;;;;;;76.13;53.13;;;19.10;55.00;;;;;;4936813;28;95154;-67
2022/05/03 12:53:30;;;;;;;75.28;53.13;;;19.10;55.00;;;;;;4930989;28;97442;-67
2022/05/03 12:55:58;;;;;;;75.82;53.30;;;19.10;55.10;;;;;;4927489;28;95476;-67
2022/05/03 12:58:27;;;;;;;75.45;53.42;;;19.10;55.10;;;;;;4936440;28;96292;-67
2022/05/03 13:00:54;;;;;;;76.63;53.28;;;19.10;55.10;;;;;;4940475;28;97295;-67
2022/05/03 13:03:23;;;;;;;75.45;53.17;;;19.20;55.10;;;;;;4930521;28;95150;-67
2022/05/03 13:05:49;;;;;;;76.00;53.40;;;19.20;55.60;;;;;;4936006;28;94889;-67
2022/05/03 13:08:19;;;;;;;76.03;53.10;;;19.20;55.00;;;;;;4931672;28;96010;-68
2022/05/03 13:10:45;;;;;;;76.75;54.00;;;19.20;55.00;;;;;;4936584;28;95197;-67
2022/05/03 13:13:12;;;;;;;76.45;53.58;;;19.20;54.90;;;;;;4934577;28;95502;-67
2022/05/03 13:15:40;;;;;;;76.13;53.53;;;19.20;55.00;;;;;;4924438;28;96302;-67
2022/05/03 13:18:07;;;;;;;74.80;52.92;;;19.20;55.00;;;;;;4938138;28;96078;-67
2022/05/03 13:20:33;;;;;;;76.15;53.05;;;19.20;54.90;;;;;;4931537;28;97833;-67
2022/05/03 13:22:58;;;;;;;75.25;53.10;;;19.20;54.80;;;;;;4927252;28;99305;-67
2022/05/03 13:25:24;;;;;;;75.50;53.13;;;19.30;54.90;;;;;;4935350;28;95070;-68